sensor_id;sensor_type;location;lat;lon;timestamp;pressure;altitude;pressure_sealevel;temperature;humidity
5780;BME280;2916;49.798;10.022;2022-10-16T00:01:22;148203.69;;;15.94;100.00
5780;BME280;2916;49.798;10.022;2022-10-16T00:03:49;148186.22;;;15.87;100.00
5780;BME280;2916;49.798;10.022;2022-10-16T00:06:20;148190.00;;;15.88;100.00
5780;BME280;2916;49.798;10.022;2022-10-16T00:08:48;148201.19;;;15.93;100.00
5780;BME280;2916;49.798;10.022;2022-10-16T00:11:20;148153.88;;;15.74;100.00
5780;BME280;2916;49.798;10.022;2022-10-16T00:13:50;148196.19;;;15.91;100.00
5780;BME280;2916;49.798;10.022;2022-10-16T00:16:19;148186.22;;;15.87;100.00
5780;BME280;2916;49.798;10.022;2022-10-16T00:18:46;148197.44;;;15.91;100.00
5780;BME280;2916;49.798;10.022;2022-10-16T00:21:18;148196.19;;;15.91;100.00
5780;BME280;2916;49.798;10.022;2022-10-16T00:23:45;148196.19;;;15.91;100.00
5780;BME280;2916;49.798;10.022;2022-10-16T00:26:15;148188.75;;;15.88;100.00
5780;BME280;2916;49.798;10.022;2022-10-16T00:28:45;148166.31;;;15.79;100.00
5780;BME280;2916;49.798;10.022;2022-10-16T00:31:13;148170.06;;;15.80;100.00
5780;BME280;2916;49.798;10.022;2022-10-16T00:33:41;148188.75;;;15.88;100.00
5780;BME280;2916;49.798;10.022;2022-10-16T00:36:13;148183.75;;;15.86;100.00
5780;BME280;2916;49.798;10.022;2022-10-16T00:38:41;148188.75;;;15.88;100.00
5780;BME280;2916;49.798;10.022;2022-10-16T00:41:13;148194.94;;;15.90;100.00
5780;BME280;2916;49.798;10.022;2022-10-16T00:43:44;148202.44;;;15.93;100.00
5780;BME280;2916;49.798;10.022;2022-10-16T00:46:18;148209.91;;;15.97;100.00
5780;BME280;2916;49.798;10.022;2022-10-16T00:48:52;148171.31;;;15.81;100.00
5780;BME280;2916;49.798;10.022;2022-10-16T00:51:25;148206.16;;;15.95;100.00
5780;BME280;2916;49.798;10.022;2022-10-16T00:53:55;148198.72;;;15.92;100.00
5780;BME280;2916;49.798;10.022;2022-10-16T00:56:23;148191.22;;;15.89;100.00
5780;BME280;2916;49.798;10.022;2022-10-16T00:58:52;148198.72;;;15.92;100.00
5780;BME280;2916;49.798;10.022;2022-10-16T01:01:19;148190.00;;;15.88;100.00
5780;BME280;2916;49.798;10.022;2022-10-16T01:03:46;148196.19;;;15.91;100.00
5780;BME280;2916;49.798;10.022;2022-10-16T01:06:24;148193.72;;;15.90;100.00
5780;BME280;2916;49.798;10.022;2022-10-16T01:09:08;148181.28;;;15.85;100.00
5780;BME280;2916;49.798;10.022;2022-10-16T01:11:48;148173.78;;;15.82;100.00
5780;BME280;2916;49.798;10.022;2022-10-16T01:14:27;148190.00;;;15.88;100.00
5780;BME280;2916;49.798;10.022;2022-10-16T01:17:03;148183.75;;;15.86;100.00
5780;BME280;2916;49.798;10.022;2022-10-16T01:19:52;148173.78;;;15.82;100.00
5780;BME280;2916;49.798;10.022;2022-10-16T01:22:38;148156.34;;;15.75;100.00
5780;BME280;2916;49.798;10.022;2022-10-16T01:25:18;148168.78;;;15.80;100.00
5780;BME280;2916;49.798;10.022;2022-10-16T01:27:50;148166.31;;;15.79;100.00
5780;BME280;2916;49.798;10.022;2022-10-16T01:30:23;148201.19;;;15.93;100.00
5780;BME280;2916;49.798;10.022;2022-10-16T01:32:57;148209.91;;;15.97;100.00
5780;BME280;2916;49.798;10.022;2022-10-16T01:35:30;148206.16;;;15.95;100.00
5780;BME280;2916;49.798;10.022;2022-10-16T01:38:04;148206.16;;;15.95;100.00
5780;BME280;2916;49.798;10.022;2022-10-16T01:40:36;148203.69;;;15.94;100.00
5780;BME280;2916;49.798;10.022;2022-10-16T01:43:12;148218.63;;;16.00;100.00
5780;BME280;2916;49.798;10.022;2022-10-16T01:45:41;148214.88;;;15.99;100.00
5780;BME280;2916;49.798;10.022;2022-10-16T01:48:14;148209.91;;;15.97;100.00
5780;BME280;2916;49.798;10.022;2022-10-16T01:50:50;148162.59;;;15.77;100.00
5780;BME280;2916;49.798;10.022;2022-10-16T01:53:20;148196.19;;;15.91;100.00
5780;BME280;2916;49.798;10.022;2022-10-16T01:55:49;148208.69;;;15.96;100.00
5780;BME280;2916;49.798;10.022;2022-10-16T01:58:20;148207.44;;;15.95;100.00
5780;BME280;2916;49.798;10.022;2022-10-16T02:00:49;148193.72;;;15.90;100.00
5780;BME280;2916;49.798;10.022;2022-10-16T02:03:19;148168.78;;;15.80;100.00
5780;BME280;2916;49.798;10.022;2022-10-16T02:05:50;148197.44;;;15.91;100.00
5780;BME280;2916;49.798;10.022;2022-10-16T02:08:19;148136.44;;;15.66;100.00
5780;BME280;2916;49.798;10.022;2022-10-16T02:10:48;148176.28;;;15.83;100.00
5780;BME280;2916;49.798;10.022;2022-10-16T02:13:22;148163.81;;;15.78;100.00
5780;BME280;2916;49.798;10.022;2022-10-16T02:15:52;148136.44;;;15.66;100.00
5780;BME280;2916;49.798;10.022;2022-10-16T02:18:20;148142.66;;;15.69;100.00
5780;BME280;2916;49.798;10.022;2022-10-16T02:20:53;148166.31;;;15.79;100.00
5780;BME280;2916;49.798;10.022;2022-10-16T02:23:32;148156.34;;;15.75;100.00
5780;BME280;2916;49.798;10.022;2022-10-16T02:26:07;148151.38;;;15.73;100.00
5780;BME280;2916;49.798;10.022;2022-10-16T02:28:42;148111.50;;;15.56;100.00
5780;BME280;2916;49.798;10.022;2022-10-16T02:31:18;148096.53;;;15.50;100.00
5780;BME280;2916;49.798;10.022;2022-10-16T02:33:52;148170.06;;;15.80;100.00
5780;BME280;2916;49.798;10.022;2022-10-16T02:36:20;148183.75;;;15.86;100.00
5780;BME280;2916;49.798;10.022;2022-10-16T02:38:48;148190.00;;;15.88;100.00
5780;BME280;2916;49.798;10.022;2022-10-16T02:41:15;148160.13;;;15.76;100.00
5780;BME280;2916;49.798;10.022;2022-10-16T02:43:44;148143.91;;;15.69;100.00
5780;BME280;2916;49.798;10.022;2022-10-16T02:46:11;148171.31;;;15.81;100.00
5780;BME280;2916;49.798;10.022;2022-10-16T02:48:38;148180.03;;;15.84;100.00
5780;BME280;2916;49.798;10.022;2022-10-16T02:51:06;148148.88;;;15.71;100.00
5780;BME280;2916;49.798;10.022;2022-10-16T02:53:33;148156.34;;;15.75;100.00
5780;BME280;2916;49.798;10.022;2022-10-16T02:56:00;148176.28;;;15.83;100.00
5780;BME280;2916;49.798;10.022;2022-10-16T02:58:27;148196.19;;;15.91;100.00
5780;BME280;2916;49.798;10.022;2022-10-16T03:00:56;148186.22;;;15.87;100.00
5780;BME280;2916;49.798;10.022;2022-10-16T03:03:23;148175.03;;;15.82;100.00
5780;BME280;2916;49.798;10.022;2022-10-16T03:05:50;148163.81;;;15.78;100.00
5780;BME280;2916;49.798;10.022;2022-10-16T03:08:17;148193.72;;;15.90;100.00
5780;BME280;2916;49.798;10.022;2022-10-16T03:10:49;148166.31;;;15.79;100.00
5780;BME280;2916;49.798;10.022;2022-10-16T03:13:16;148186.22;;;15.87;100.00
5780;BME280;2916;49.798;10.022;2022-10-16T03:15:44;148201.19;;;15.93;100.00
5780;BME280;2916;49.798;10.022;2022-10-16T03:18:12;148188.75;;;15.88;100.00
5780;BME280;2916;49.798;10.022;2022-10-16T03:20:39;148198.72;;;15.92;100.00
5780;BME280;2916;49.798;10.022;2022-10-16T03:23:06;148165.06;;;15.78;100.00
5780;BME280;2916;49.798;10.022;2022-10-16T03:25:34;148036.78;;;15.26;100.00
5780;BME280;2916;49.798;10.022;2022-10-16T03:28:02;148167.53;;;15.79;100.00
5780;BME280;2916;49.798;10.022;2022-10-16T03:30:29;148138.91;;;15.67;100.00
5780;BME280;2916;49.798;10.022;2022-10-16T03:32:56;148133.94;;;15.65;100.00
5780;BME280;2916;49.798;10.022;2022-10-16T03:35:24;148131.41;;;15.64;100.00
5780;BME280;2916;49.798;10.022;2022-10-16T03:37:52;148141.44;;;15.68;100.00
5780;BME280;2916;49.798;10.022;2022-10-16T03:40:19;148126.41;;;15.62;100.00
5780;BME280;2916;49.798;10.022;2022-10-16T03:42:46;148121.47;;;15.60;100.00
5780;BME280;2916;49.798;10.022;2022-10-16T03:45:13;148115.22;;;15.58;100.00
5780;BME280;2916;49.798;10.022;2022-10-16T03:47:41;148111.50;;;15.56;100.00
5780;BME280;2916;49.798;10.022;2022-10-16T03:50:09;148089.06;;;15.47;100.00
5780;BME280;2916;49.798;10.022;2022-10-16T03:52:37;148138.91;;;15.67;100.00
5780;BME280;2916;49.798;10.022;2022-10-16T03:55:06;148153.88;;;15.74;100.00
5780;BME280;2916;49.798;10.022;2022-10-16T03:57:33;148158.81;;;15.76;100.00
5780;BME280;2916;49.798;10.022;2022-10-16T04:00:00;148168.78;;;15.80;100.00
5780;BME280;2916;49.798;10.022;2022-10-16T04:02:27;148171.31;;;15.81;100.00
5780;BME280;2916;49.798;10.022;2022-10-16T04:04:54;148181.28;;;15.85;100.00
5780;BME280;2916;49.798;10.022;2022-10-16T04:07:22;148170.06;;;15.80;100.00
5780;BME280;2916;49.798;10.022;2022-10-16T04:09:50;148138.91;;;15.67;100.00
5780;BME280;2916;49.798;10.022;2022-10-16T04:12:17;148157.59;;;15.75;100.00
5780;BME280;2916;49.798;10.022;2022-10-16T04:14:44;148158.81;;;15.76;100.00
5780;BME280;2916;49.798;10.022;2022-10-16T04:17:12;148138.91;;;15.67;100.00
5780;BME280;2916;49.798;10.022;2022-10-16T04:19:39;148143.91;;;15.69;100.00
5780;BME280;2916;49.798;10.022;2022-10-16T04:22:06;148178.78;;;15.84;100.00
5780;BME280;2916;49.798;10.022;2022-10-16T04:24:33;148188.75;;;15.88;100.00
5780;BME280;2916;49.798;10.022;2022-10-16T04:27:02;148191.22;;;15.89;100.00
5780;BME280;2916;49.798;10.022;2022-10-16T04:29:29;148186.22;;;15.87;100.00
5780;BME280;2916;49.798;10.022;2022-10-16T04:31:56;148188.75;;;15.88;100.00
5780;BME280;2916;49.798;10.022;2022-10-16T04:34:23;148188.75;;;15.88;100.00
5780;BME280;2916;49.798;10.022;2022-10-16T04:36:50;148188.75;;;15.88;100.00
5780;BME280;2916;49.798;10.022;2022-10-16T04:39:18;148151.38;;;15.73;100.00
5780;BME280;2916;49.798;10.022;2022-10-16T04:41:45;148116.47;;;15.58;100.00
5780;BME280;2916;49.798;10.022;2022-10-16T04:44:13;148178.78;;;15.84;100.00
5780;BME280;2916;49.798;10.022;2022-10-16T04:46:40;148188.75;;;15.88;100.00
5780;BME280;2916;49.798;10.022;2022-10-16T04:49:08;148156.34;;;15.75;100.00
5780;BME280;2916;49.798;10.022;2022-10-16T04:51:35;148094.06;;;15.49;100.00
5780;BME280;2916;49.798;10.022;2022-10-16T04:54:02;148198.72;;;15.92;100.00
5780;BME280;2916;49.798;10.022;2022-10-16T04:56:29;148202.44;;;15.93;100.00
5780;BME280;2916;49.798;10.022;2022-10-16T04:58:56;148218.63;;;16.00;100.00
5780;BME280;2916;49.798;10.022;2022-10-16T05:01:25;148198.72;;;15.92;100.00
5780;BME280;2916;49.798;10.022;2022-10-16T05:03:52;148197.44;;;15.91;100.00
5780;BME280;2916;49.798;10.022;2022-10-16T05:06:19;148206.16;;;15.95;100.00
5780;BME280;2916;49.798;10.022;2022-10-16T05:08:46;148216.13;;;15.99;100.00
5780;BME280;2916;49.798;10.022;2022-10-16T05:11:13;148221.13;;;16.01;100.00
5780;BME280;2916;49.798;10.022;2022-10-16T05:13:40;148221.13;;;16.01;100.00
5780;BME280;2916;49.798;10.022;2022-10-16T05:16:07;148226.06;;;16.03;100.00
5780;BME280;2916;49.798;10.022;2022-10-16T05:18:36;148228.59;;;16.04;100.00
5780;BME280;2916;49.798;10.022;2022-10-16T05:21:03;148219.88;;;16.01;100.00
5780;BME280;2916;49.798;10.022;2022-10-16T05:23:31;148194.94;;;15.90;100.00
5780;BME280;2916;49.798;10.022;2022-10-16T05:25:59;148171.31;;;15.81;100.00
5780;BME280;2916;49.798;10.022;2022-10-16T05:28:28;148183.75;;;15.86;100.00
5780;BME280;2916;49.798;10.022;2022-10-16T05:30:56;148181.28;;;15.85;100.00
5780;BME280;2916;49.798;10.022;2022-10-16T05:33:25;148186.22;;;15.87;100.00
5780;BME280;2916;49.798;10.022;2022-10-16T05:35:53;148168.78;;;15.80;100.00
5780;BME280;2916;49.798;10.022;2022-10-16T05:38:20;148181.28;;;15.85;100.00
5780;BME280;2916;49.798;10.022;2022-10-16T05:40:52;148180.03;;;15.84;100.00
5780;BME280;2916;49.798;10.022;2022-10-16T05:43:19;148199.97;;;15.92;100.00
5780;BME280;2916;49.798;10.022;2022-10-16T05:45:54;148132.72;;;15.65;100.00
5780;BME280;2916;49.798;10.022;2022-10-16T05:48:22;148182.50;;;15.85;100.00
5780;BME280;2916;49.798;10.022;2022-10-16T05:50:58;148188.75;;;15.88;100.00
5780;BME280;2916;49.798;10.022;2022-10-16T05:53:27;148193.72;;;15.90;100.00
5780;BME280;2916;49.798;10.022;2022-10-16T05:55:55;148191.22;;;15.89;100.00
5780;BME280;2916;49.798;10.022;2022-10-16T05:58:23;148181.28;;;15.85;100.00
5780;BME280;2916;49.798;10.022;2022-10-16T06:00:55;148192.47;;;15.89;100.00
5780;BME280;2916;49.798;10.022;2022-10-16T06:03:23;148188.75;;;15.88;100.00
5780;BME280;2916;49.798;10.022;2022-10-16T06:05:50;148196.19;;;15.91;100.00
5780;BME280;2916;49.798;10.022;2022-10-16T06:08:20;148193.72;;;15.90;100.00
5780;BME280;2916;49.798;10.022;2022-10-16T06:10:47;148198.72;;;15.92;100.00
5780;BME280;2916;49.798;10.022;2022-10-16T06:13:15;148113.97;;;15.57;100.00
5780;BME280;2916;49.798;10.022;2022-10-16T06:15:42;148223.59;;;16.02;100.00
5780;BME280;2916;49.798;10.022;2022-10-16T06:18:10;148131.41;;;15.64;100.00
5780;BME280;2916;49.798;10.022;2022-10-16T06:20:37;148241.03;;;16.09;100.00
5780;BME280;2916;49.798;10.022;2022-10-16T06:23:04;148231.09;;;16.05;100.00
5780;BME280;2916;49.798;10.022;2022-10-16T06:25:33;148211.16;;;15.97;100.00
5780;BME280;2916;49.798;10.022;2022-10-16T06:28:00;148290.84;;;16.30;100.00
5780;BME280;2916;49.798;10.022;2022-10-16T06:30:27;148282.13;;;16.26;100.00
5780;BME280;2916;49.798;10.022;2022-10-16T06:32:54;148289.63;;;16.29;100.00
5780;BME280;2916;49.798;10.022;2022-10-16T06:35:21;148279.66;;;16.25;100.00
5780;BME280;2916;49.798;10.022;2022-10-16T06:37:49;148272.19;;;16.22;100.00
5780;BME280;2916;49.798;10.022;2022-10-16T06:40:16;148282.13;;;16.26;100.00
5780;BME280;2916;49.798;10.022;2022-10-16T06:42:45;148278.41;;;16.25;100.00
5780;BME280;2916;49.798;10.022;2022-10-16T06:45:12;148236.09;;;16.07;100.00
5780;BME280;2916;49.798;10.022;2022-10-16T06:47:39;148260.97;;;16.17;100.00
5780;BME280;2916;49.798;10.022;2022-10-16T06:50:07;148265.97;;;16.19;100.00
5780;BME280;2916;49.798;10.022;2022-10-16T06:52:35;148141.44;;;15.68;100.00
5780;BME280;2916;49.798;10.022;2022-10-16T06:55:05;148270.94;;;16.22;100.00
5780;BME280;2916;49.798;10.022;2022-10-16T06:57:32;148233.56;;;16.06;100.00
5780;BME280;2916;49.798;10.022;2022-10-16T07:00:01;148257.25;;;16.16;100.00
5780;BME280;2916;49.798;10.022;2022-10-16T07:02:28;148254.72;;;16.15;100.00
5780;BME280;2916;49.798;10.022;2022-10-16T07:04:55;148238.56;;;16.08;100.00
5780;BME280;2916;49.798;10.022;2022-10-16T07:07:22;148284.66;;;16.27;100.00
5780;BME280;2916;49.798;10.022;2022-10-16T07:09:50;148155.09;;;15.74;100.00
5780;BME280;2916;49.798;10.022;2022-10-16T07:12:17;148317.03;;;16.40;100.00
5780;BME280;2916;49.798;10.022;2022-10-16T07:14:44;148287.13;;;16.28;100.00
5780;BME280;2916;49.798;10.022;2022-10-16T07:17:13;148324.53;;;16.43;100.00
5780;BME280;2916;49.798;10.022;2022-10-16T07:19:40;148345.69;;;16.52;100.00
5780;BME280;2916;49.798;10.022;2022-10-16T07:22:07;148340.69;;;16.50;100.00
5780;BME280;2916;49.798;10.022;2022-10-16T07:24:34;148358.13;;;16.57;100.00
5780;BME280;2916;49.798;10.022;2022-10-16T07:27:02;148293.34;;;16.31;100.00
5780;BME280;2916;49.798;10.022;2022-10-16T07:29:29;148335.72;;;16.48;100.00
5780;BME280;2916;49.798;10.022;2022-10-16T07:31:56;148343.22;;;16.51;100.00
5780;BME280;2916;49.798;10.022;2022-10-16T07:34:24;148364.38;;;16.60;100.00
5780;BME280;2916;49.798;10.022;2022-10-16T07:36:52;148370.63;;;16.62;100.00
5780;BME280;2916;49.798;10.022;2022-10-16T07:39:19;148378.06;;;16.65;100.00
5780;BME280;2916;49.798;10.022;2022-10-16T07:41:46;148270.94;;;16.22;100.00
5780;BME280;2916;49.798;10.022;2022-10-16T07:44:13;148292.09;;;16.30;100.00
5780;BME280;2916;49.798;10.022;2022-10-16T07:46:40;148269.69;;;16.21;100.00
5780;BME280;2916;49.798;10.022;2022-10-16T07:49:08;148325.75;;;16.44;100.00
5780;BME280;2916;49.798;10.022;2022-10-16T07:51:37;148317.03;;;16.40;100.00
5780;BME280;2916;49.798;10.022;2022-10-16T07:54:05;148350.66;;;16.54;100.00
5780;BME280;2916;49.798;10.022;2022-10-16T07:56:32;148341.97;;;16.51;100.00
5780;BME280;2916;49.798;10.022;2022-10-16T07:59:00;148368.09;;;16.61;100.00
5780;BME280;2916;49.798;10.022;2022-10-16T08:01:27;148343.22;;;16.51;100.00
5780;BME280;2916;49.798;10.022;2022-10-16T08:03:54;148354.41;;;16.56;100.00
5780;BME280;2916;49.798;10.022;2022-10-16T08:06:22;148375.59;;;16.64;100.00
5780;BME280;2916;49.798;10.022;2022-10-16T08:08:51;148378.06;;;16.65;100.00
5780;BME280;2916;49.798;10.022;2022-10-16T08:11:18;148365.63;;;16.60;100.00
5780;BME280;2916;49.798;10.022;2022-10-16T08:13:45;148292.09;;;16.30;100.00
5780;BME280;2916;49.798;10.022;2022-10-16T08:16:12;148336.97;;;16.49;100.00
5780;BME280;2916;49.798;10.022;2022-10-16T08:18:41;148298.34;;;16.33;100.00
5780;BME280;2916;49.798;10.022;2022-10-16T08:21:14;148358.13;;;16.57;100.00
5780;BME280;2916;49.798;10.022;2022-10-16T08:23:41;148363.13;;;16.59;100.00
5780;BME280;2916;49.798;10.022;2022-10-16T08:26:12;148370.63;;;16.62;100.00
5780;BME280;2916;49.798;10.022;2022-10-16T08:28:39;148354.41;;;16.56;100.00
5780;BME280;2916;49.798;10.022;2022-10-16T08:31:08;148396.81;;;16.73;100.00
5780;BME280;2916;49.798;10.022;2022-10-16T08:33:36;148423.00;;;16.84;100.00
5780;BME280;2916;49.798;10.022;2022-10-16T08:36:05;148425.47;;;16.85;100.00
5780;BME280;2916;49.798;10.022;2022-10-16T08:38:32;148417.97;;;16.82;100.00
5780;BME280;2916;49.798;10.022;2022-10-16T08:41:26;148445.41;;;16.93;100.00
5780;BME280;2916;49.798;10.022;2022-10-16T08:47:02;148447.94;;;16.94;100.00
5780;BME280;2916;49.798;10.022;2022-10-16T08:49:36;148500.25;;;17.15;100.00
5780;BME280;2916;49.798;10.022;2022-10-16T08:52:12;148516.47;;;17.22;100.00
5780;BME280;2916;49.798;10.022;2022-10-16T08:54:45;148532.66;;;17.29;100.00
5780;BME280;2916;49.798;10.022;2022-10-16T08:57:20;148492.78;;;17.12;100.00
5780;BME280;2916;49.798;10.022;2022-10-16T08:59:48;148573.81;;;17.46;100.00
5780;BME280;2916;49.798;10.022;2022-10-16T09:02:29;148591.28;;;17.53;100.00
5780;BME280;2916;49.798;10.022;2022-10-16T09:05:21;148598.72;;;17.56;100.00
5780;BME280;2916;49.798;10.022;2022-10-16T09:08:01;148575.06;;;17.46;100.00
5780;BME280;2916;49.798;10.022;2022-10-16T09:10:44;148557.59;;;17.39;100.00
5780;BME280;2916;49.798;10.022;2022-10-16T09:13:26;148563.84;;;17.41;99.59
5780;BME280;2916;49.798;10.022;2022-10-16T09:16:10;148560.09;;;17.40;100.00
5780;BME280;2916;49.798;10.022;2022-10-16T09:18:48;148613.72;;;17.62;100.00
5780;BME280;2916;49.798;10.022;2022-10-16T09:21:23;148599.97;;;17.56;99.68
5780;BME280;2916;49.798;10.022;2022-10-16T09:23:54;148617.44;;;17.63;99.14
5780;BME280;2916;49.798;10.022;2022-10-16T09:26:24;148616.19;;;17.63;99.40
5780;BME280;2916;49.798;10.022;2022-10-16T09:28:53;148656.13;;;17.79;99.64
5780;BME280;2916;49.798;10.022;2022-10-16T09:31:22;148662.38;;;17.82;98.58
5780;BME280;2916;49.798;10.022;2022-10-16T09:33:54;148678.59;;;17.88;96.06
5780;BME280;2916;49.798;10.022;2022-10-16T09:36:25;148744.66;;;18.15;97.31
5780;BME280;2916;49.798;10.022;2022-10-16T09:39:05;148742.19;;;18.14;95.27
5780;BME280;2916;49.798;10.022;2022-10-16T09:41:35;148749.66;;;18.18;96.76
5780;BME280;2916;49.798;10.022;2022-10-16T09:44:17;148767.13;;;18.25;96.13
5780;BME280;2916;49.798;10.022;2022-10-16T09:46:46;148750.91;;;18.18;95.73
5780;BME280;2916;49.798;10.022;2022-10-16T09:49:23;148697.31;;;17.96;95.37
5780;BME280;2916;49.798;10.022;2022-10-16T09:52:02;148732.19;;;18.10;96.26
5780;BME280;2916;49.798;10.022;2022-10-16T09:54:29;148778.34;;;18.29;98.29
5780;BME280;2916;49.798;10.022;2022-10-16T09:57:06;148752.16;;;18.19;97.48
5780;BME280;2916;49.798;10.022;2022-10-16T09:59:45;148754.69;;;18.20;96.25
5780;BME280;2916;49.798;10.022;2022-10-16T10:02:16;148737.22;;;18.12;97.85
5780;BME280;2916;49.798;10.022;2022-10-16T10:04:50;148743.41;;;18.15;97.17
5780;BME280;2916;49.798;10.022;2022-10-16T10:07:25;148759.66;;;18.22;95.56
5780;BME280;2916;49.798;10.022;2022-10-16T10:09:55;148742.19;;;18.14;97.14
5780;BME280;2916;49.798;10.022;2022-10-16T10:12:26;148794.59;;;18.36;97.92
5780;BME280;2916;49.798;10.022;2022-10-16T10:14:57;148750.91;;;18.18;98.04
5780;BME280;2916;49.798;10.022;2022-10-16T10:17:26;148827.00;;;18.49;98.76
5780;BME280;2916;49.798;10.022;2022-10-16T10:19:57;148827.00;;;18.49;97.56
5780;BME280;2916;49.798;10.022;2022-10-16T10:22:30;148855.69;;;18.61;98.51
5780;BME280;2916;49.798;10.022;2022-10-16T10:25:29;148861.94;;;18.63;99.31
5780;BME280;2916;49.798;10.022;2022-10-16T10:28:46;148839.47;;;18.54;98.01
5780;BME280;2916;49.798;10.022;2022-10-16T10:31:25;148861.94;;;18.63;98.64
5780;BME280;2916;49.798;10.022;2022-10-16T10:34:01;148846.97;;;18.57;99.50
5780;BME280;2916;49.798;10.022;2022-10-16T10:36:36;148807.06;;;18.41;99.65
5780;BME280;2916;49.798;10.022;2022-10-16T10:39:09;148749.66;;;18.18;100.00
5780;BME280;2916;49.798;10.022;2022-10-16T10:42:13;148723.47;;;18.07;100.00
5780;BME280;2916;49.798;10.022;2022-10-16T10:45:11;148676.06;;;17.87;100.00
5780;BME280;2916;49.798;10.022;2022-10-16T10:48:00;148634.91;;;17.71;100.00
5780;BME280;2916;49.798;10.022;2022-10-16T10:50:38;148666.09;;;17.83;100.00
5780;BME280;2916;49.798;10.022;2022-10-16T10:53:25;148654.88;;;17.79;100.00
5780;BME280;2916;49.798;10.022;2022-10-16T10:56:14;148631.16;;;17.69;100.00
5780;BME280;2916;49.798;10.022;2022-10-16T10:59:19;148662.38;;;17.82;100.00
5780;BME280;2916;49.798;10.022;2022-10-16T11:01:56;148702.28;;;17.98;100.00
5780;BME280;2916;49.798;10.022;2022-10-16T11:05:07;148734.69;;;18.11;100.00
5780;BME280;2916;49.798;10.022;2022-10-16T11:07:49;148825.75;;;18.49;100.00
5780;BME280;2916;49.798;10.022;2022-10-16T11:10:23;148864.44;;;18.64;100.00
5780;BME280;2916;49.798;10.022;2022-10-16T11:13:00;148925.59;;;18.89;100.00
5780;BME280;2916;49.798;10.022;2022-10-16T11:15:35;148911.91;;;18.84;100.00
5780;BME280;2916;49.798;10.022;2022-10-16T11:18:08;148964.28;;;19.05;100.00
5780;BME280;2916;49.798;10.022;2022-10-16T11:20:43;148959.31;;;19.03;98.40
5780;BME280;2916;49.798;10.022;2022-10-16T11:23:18;149029.19;;;19.32;98.35
5780;BME280;2916;49.798;10.022;2022-10-16T11:25:48;148996.75;;;19.19;95.61
5780;BME280;2916;49.798;10.022;2022-10-16T11:28:19;149011.72;;;19.25;94.73
5780;BME280;2916;49.798;10.022;2022-10-16T11:30:52;149019.22;;;19.28;97.60
5780;BME280;2916;49.798;10.022;2022-10-16T11:33:30;149026.72;;;19.31;95.59
5780;BME280;2916;49.798;10.022;2022-10-16T11:36:12;149009.22;;;19.24;94.68
5780;BME280;2916;49.798;10.022;2022-10-16T11:38:49;149030.44;;;19.32;95.82
5780;BME280;2916;49.798;10.022;2022-10-16T11:41:27;149065.41;;;19.47;93.22
5780;BME280;2916;49.798;10.022;2022-10-16T11:44:20;149004.25;;;19.22;93.83
5780;BME280;2916;49.798;10.022;2022-10-16T11:46:59;149136.59;;;19.76;94.20
5780;BME280;2916;49.798;10.022;2022-10-16T11:49:32;149174.03;;;19.91;95.86
5780;BME280;2916;49.798;10.022;2022-10-16T11:52:07;149126.59;;;19.72;93.11
5780;BME280;2916;49.798;10.022;2022-10-16T11:54:47;149142.84;;;19.78;92.55
5780;BME280;2916;49.798;10.022;2022-10-16T11:57:22;149176.53;;;19.92;93.74
5780;BME280;2916;49.798;10.022;2022-10-16T11:59:57;149204.00;;;20.03;92.72
5780;BME280;2916;49.798;10.022;2022-10-16T12:02:53;149207.78;;;20.05;93.18
5780;BME280;2916;49.798;10.022;2022-10-16T12:05:33;149233.97;;;20.16;92.63
5780;BME280;2916;49.798;10.022;2022-10-16T12:08:11;149209.03;;;20.05;93.28
5780;BME280;2916;49.798;10.022;2022-10-16T12:10:42;149189.03;;;19.97;87.22
5780;BME280;2916;49.798;10.022;2022-10-16T12:13:34;149258.97;;;20.26;86.85
5780;BME280;2916;49.798;10.022;2022-10-16T12:16:22;149214.00;;;20.07;83.84
5780;BME280;2916;49.798;10.022;2022-10-16T12:19:03;149240.22;;;20.18;82.75
5780;BME280;2916;49.798;10.022;2022-10-16T12:21:36;149241.47;;;20.19;86.41
5780;BME280;2916;49.798;10.022;2022-10-16T12:24:06;149281.44;;;20.35;84.93
5780;BME280;2916;49.798;10.022;2022-10-16T12:26:46;149333.97;;;20.56;87.55
5780;BME280;2916;49.798;10.022;2022-10-16T12:29:30;149358.91;;;20.67;87.72
5780;BME280;2916;49.798;10.022;2022-10-16T12:31:58;149363.94;;;20.69;85.53
5780;BME280;2916;49.798;10.022;2022-10-16T12:34:31;149356.44;;;20.66;87.75
5780;BME280;2916;49.798;10.022;2022-10-16T12:37:13;149366.41;;;20.70;86.06
5780;BME280;2916;49.798;10.022;2022-10-16T12:39:43;149360.19;;;20.67;85.86
5780;BME280;2916;49.798;10.022;2022-10-16T12:42:33;149341.47;;;20.59;86.03
5780;BME280;2916;49.798;10.022;2022-10-16T12:45:12;149383.91;;;20.77;85.89
5780;BME280;2916;49.798;10.022;2022-10-16T12:47:50;149361.44;;;20.68;85.99
5780;BME280;2916;49.798;10.022;2022-10-16T12:50:29;149415.13;;;20.90;85.16
5780;BME280;2916;49.798;10.022;2022-10-16T12:52:58;149397.63;;;20.82;85.19
5780;BME280;2916;49.798;10.022;2022-10-16T12:55:33;149457.63;;;21.07;85.15
5780;BME280;2916;49.798;10.022;2022-10-16T12:58:25;149463.84;;;21.09;85.18
5780;BME280;2916;49.798;10.022;2022-10-16T13:01:07;149471.38;;;21.13;84.16
5780;BME280;2916;49.798;10.022;2022-10-16T13:04:00;149478.88;;;21.16;85.15
5780;BME280;2916;49.798;10.022;2022-10-16T13:06:38;149481.34;;;21.17;84.10
5780;BME280;2916;49.798;10.022;2022-10-16T13:09:33;149477.63;;;21.15;85.37
5780;BME280;2916;49.798;10.022;2022-10-16T13:12:31;149471.38;;;21.13;83.74
5780;BME280;2916;49.798;10.022;2022-10-16T13:15:22;149441.38;;;21.00;83.82
5780;BME280;2916;49.798;10.022;2022-10-16T13:18:03;149441.38;;;21.00;84.23
5780;BME280;2916;49.798;10.022;2022-10-16T13:20:42;149443.88;;;21.01;84.25
5780;BME280;2916;49.798;10.022;2022-10-16T13:23:20;149348.91;;;20.63;85.49